sensor_id;sensor_type;location;lat;lon;timestamp;P1;durP1;ratioP1;P2;durP2;ratioP2
7929;SDS011;4010;42.698;23.124;2023-06-10T00:02:19;11.80;;;7.77;;
7929;SDS011;4010;42.698;23.124;2023-06-10T00:04:46;9.13;;;7.73;;
7929;SDS011;4010;42.698;23.124;2023-06-10T00:07:13;8.77;;;7.87;;
7929;SDS011;4010;42.698;23.124;2023-06-10T00:09:39;11.90;;;7.80;;
7929;SDS011;4010;42.698;23.124;2023-06-10T00:12:07;8.70;;;7.80;;
7929;SDS011;4010;42.698;23.124;2023-06-10T00:14:36;10.23;;;8.37;;
7929;SDS011;4010;42.698;23.124;2023-06-10T00:17:04;9.57;;;7.87;;
7929;SDS011;4010;42.698;23.124;2023-06-10T00:19:34;8.93;;;8.13;;
7929;SDS011;4010;42.698;23.124;2023-06-10T00:22:01;8.73;;;7.80;;
7929;SDS011;4010;42.698;23.124;2023-06-10T00:24:28;9.40;;;8.37;;
7929;SDS011;4010;42.698;23.124;2023-06-10T00:26:54;8.47;;;7.63;;
7929;SDS011;4010;42.698;23.124;2023-06-10T00:29:21;8.80;;;7.67;;
7929;SDS011;4010;42.698;23.124;2023-06-10T00:31:49;8.37;;;7.63;;
7929;SDS011;4010;42.698;23.124;2023-06-10T00:34:16;8.70;;;7.80;;
7929;SDS011;4010;42.698;23.124;2023-06-10T00:36:42;10.90;;;7.47;;
7929;SDS011;4010;42.698;23.124;2023-06-10T00:39:09;9.30;;;7.80;;
7929;SDS011;4010;42.698;23.124;2023-06-10T00:41:36;8.37;;;7.67;;
7929;SDS011;4010;42.698;23.124;2023-06-10T00:44:03;12.70;;;8.07;;
7929;SDS011;4010;42.698;23.124;2023-06-10T00:46:29;9.63;;;8.57;;
7929;SDS011;4010;42.698;23.124;2023-06-10T00:49:00;8.67;;;7.87;;
7929;SDS011;4010;42.698;23.124;2023-06-10T00:51:26;8.83;;;8.03;;
7929;SDS011;4010;42.698;23.124;2023-06-10T00:53:53;8.67;;;7.87;;
7929;SDS011;4010;42.698;23.124;2023-06-10T00:56:21;11.73;;;8.87;;
7929;SDS011;4010;42.698;23.124;2023-06-10T00:58:48;9.30;;;8.17;;
7929;SDS011;4010;42.698;23.124;2023-06-10T01:01:15;9.97;;;8.97;;
7929;SDS011;4010;42.698;23.124;2023-06-10T01:03:42;10.10;;;8.30;;
7929;SDS011;4010;42.698;23.124;2023-06-10T01:06:14;9.40;;;8.57;;
7929;SDS011;4010;42.698;23.124;2023-06-10T01:08:50;9.07;;;8.10;;
7929;SDS011;4010;42.698;23.124;2023-06-10T01:11:23;9.57;;;8.57;;
7929;SDS011;4010;42.698;23.124;2023-06-10T01:13:54;9.43;;;8.53;;
7929;SDS011;4010;42.698;23.124;2023-06-10T01:16:22;9.43;;;8.53;;
7929;SDS011;4010;42.698;23.124;2023-06-10T01:18:50;9.27;;;8.03;;
7929;SDS011;4010;42.698;23.124;2023-06-10T01:21:20;10.57;;;8.80;;
7929;SDS011;4010;42.698;23.124;2023-06-10T01:23:49;9.00;;;8.10;;
7929;SDS011;4010;42.698;23.124;2023-06-10T01:26:16;12.40;;;8.17;;
7929;SDS011;4010;42.698;23.124;2023-06-10T01:28:47;9.07;;;7.80;;
7929;SDS011;4010;42.698;23.124;2023-06-10T01:31:20;10.33;;;8.30;;
7929;SDS011;4010;42.698;23.124;2023-06-10T01:33:59;9.07;;;7.83;;
7929;SDS011;4010;42.698;23.124;2023-06-10T01:36:28;8.33;;;7.67;;
7929;SDS011;4010;42.698;23.124;2023-06-10T01:38:57;9.37;;;7.90;;
7929;SDS011;4010;42.698;23.124;2023-06-10T01:41:25;8.87;;;8.17;;
7929;SDS011;4010;42.698;23.124;2023-06-10T01:43:54;8.87;;;7.97;;
7929;SDS011;4010;42.698;23.124;2023-06-10T01:46:21;8.17;;;7.37;;
7929;SDS011;4010;42.698;23.124;2023-06-10T01:48:48;8.77;;;7.87;;
7929;SDS011;4010;42.698;23.124;2023-06-10T01:51:14;9.63;;;8.73;;
7929;SDS011;4010;42.698;23.124;2023-06-10T01:53:42;8.90;;;8.20;;
7929;SDS011;4010;42.698;23.124;2023-06-10T01:56:09;9.10;;;7.87;;
7929;SDS011;4010;42.698;23.124;2023-06-10T01:58:41;8.57;;;7.57;;
7929;SDS011;4010;42.698;23.124;2023-06-10T02:01:08;8.83;;;7.93;;
7929;SDS011;4010;42.698;23.124;2023-06-10T02:03:35;8.00;;;7.30;;
7929;SDS011;4010;42.698;23.124;2023-06-10T02:06:02;9.17;;;8.30;;
7929;SDS011;4010;42.698;23.124;2023-06-10T02:08:28;8.03;;;7.23;;
7929;SDS011;4010;42.698;23.124;2023-06-10T02:10:56;7.97;;;7.27;;
7929;SDS011;4010;42.698;23.124;2023-06-10T02:13:23;8.57;;;7.80;;
7929;SDS011;4010;42.698;23.124;2023-06-10T02:15:50;9.27;;;8.33;;
7929;SDS011;4010;42.698;23.124;2023-06-10T02:18:18;8.23;;;7.40;;
7929;SDS011;4010;42.698;23.124;2023-06-10T02:20:45;9.60;;;8.17;;
7929;SDS011;4010;42.698;23.124;2023-06-10T02:23:12;9.07;;;8.20;;
7929;SDS011;4010;42.698;23.124;2023-06-10T02:25:39;10.40;;;8.27;;
7929;SDS011;4010;42.698;23.124;2023-06-10T02:28:07;8.47;;;7.73;;
7929;SDS011;4010;42.698;23.124;2023-06-10T02:30:34;10.27;;;7.90;;
7929;SDS011;4010;42.698;23.124;2023-06-10T02:33:00;8.67;;;7.87;;
7929;SDS011;4010;42.698;23.124;2023-06-10T02:35:27;8.37;;;7.63;;
7929;SDS011;4010;42.698;23.124;2023-06-10T02:37:54;10.30;;;8.37;;
7929;SDS011;4010;42.698;23.124;2023-06-10T02:40:20;8.40;;;7.63;;
7929;SDS011;4010;42.698;23.124;2023-06-10T02:42:47;8.67;;;7.87;;
7929;SDS011;4010;42.698;23.124;2023-06-10T02:45:15;9.73;;;8.73;;
7929;SDS011;4010;42.698;23.124;2023-06-10T02:47:42;8.33;;;7.63;;
7929;SDS011;4010;42.698;23.124;2023-06-10T02:50:09;9.33;;;8.53;;
7929;SDS011;4010;42.698;23.124;2023-06-10T02:52:35;8.97;;;8.10;;
7929;SDS011;4010;42.698;23.124;2023-06-10T02:55:02;10.93;;;8.00;;
7929;SDS011;4010;42.698;23.124;2023-06-10T02:57:29;8.40;;;7.57;;
7929;SDS011;4010;42.698;23.124;2023-06-10T02:59:56;8.57;;;7.87;;
7929;SDS011;4010;42.698;23.124;2023-06-10T03:02:24;9.40;;;8.47;;
7929;SDS011;4010;42.698;23.124;2023-06-10T03:04:53;8.67;;;7.77;;
7929;SDS011;4010;42.698;23.124;2023-06-10T03:07:20;9.23;;;8.37;;
7929;SDS011;4010;42.698;23.124;2023-06-10T03:09:48;9.07;;;8.17;;
7929;SDS011;4010;42.698;23.124;2023-06-10T03:12:14;9.63;;;8.63;;
7929;SDS011;4010;42.698;23.124;2023-06-10T03:14:41;9.97;;;8.97;;
7929;SDS011;4010;42.698;23.124;2023-06-10T03:17:08;8.67;;;7.97;;
7929;SDS011;4010;42.698;23.124;2023-06-10T03:19:36;10.40;;;9.13;;
7929;SDS011;4010;42.698;23.124;2023-06-10T03:22:07;8.90;;;8.10;;
7929;SDS011;4010;42.698;23.124;2023-06-10T03:24:35;9.20;;;8.40;;
7929;SDS011;4010;42.698;23.124;2023-06-10T03:27:05;8.63;;;7.80;;
7929;SDS011;4010;42.698;23.124;2023-06-10T03:29:32;9.73;;;8.73;;
7929;SDS011;4010;42.698;23.124;2023-06-10T03:31:59;8.80;;;8.10;;
7929;SDS011;4010;42.698;23.124;2023-06-10T03:34:26;9.80;;;8.90;;
7929;SDS011;4010;42.698;23.124;2023-06-10T03:36:54;10.20;;;9.20;;
7929;SDS011;4010;42.698;23.124;2023-06-10T03:39:21;9.40;;;8.50;;
7929;SDS011;4010;42.698;23.124;2023-06-10T03:41:48;9.13;;;8.33;;
7929;SDS011;4010;42.698;23.124;2023-06-10T03:44:15;9.63;;;8.63;;
7929;SDS011;4010;42.698;23.124;2023-06-10T03:46:41;9.13;;;8.23;;
7929;SDS011;4010;42.698;23.124;2023-06-10T03:49:08;8.70;;;8.00;;
7929;SDS011;4010;42.698;23.124;2023-06-10T03:51:35;7.90;;;7.20;;
7929;SDS011;4010;42.698;23.124;2023-06-10T03:54:04;8.07;;;7.40;;
7929;SDS011;4010;42.698;23.124;2023-06-10T03:56:31;8.50;;;7.70;;
7929;SDS011;4010;42.698;23.124;2023-06-10T03:58:57;8.00;;;7.30;;
7929;SDS011;4010;42.698;23.124;2023-06-10T04:01:24;10.77;;;8.30;;
7929;SDS011;4010;42.698;23.124;2023-06-10T04:03:51;8.60;;;7.73;;
7929;SDS011;4010;42.698;23.124;2023-06-10T04:06:19;10.70;;;8.53;;
7929;SDS011;4010;42.698;23.124;2023-06-10T04:08:47;8.43;;;7.70;;
7929;SDS011;4010;42.698;23.124;2023-06-10T04:11:15;8.57;;;7.80;;
7929;SDS011;4010;42.698;23.124;2023-06-10T04:13:42;9.07;;;8.27;;
7929;SDS011;4010;42.698;23.124;2023-06-10T04:16:09;10.33;;;8.70;;
7929;SDS011;4010;42.698;23.124;2023-06-10T04:18:35;8.77;;;8.07;;
7929;SDS011;4010;42.698;23.124;2023-06-10T04:21:02;9.30;;;8.30;;
7929;SDS011;4010;42.698;23.124;2023-06-10T04:23:29;8.87;;;8.07;;
7929;SDS011;4010;42.698;23.124;2023-06-10T04:25:55;8.53;;;7.80;;
7929;SDS011;4010;42.698;23.124;2023-06-10T04:28:23;8.10;;;7.50;;
7929;SDS011;4010;42.698;23.124;2023-06-10T04:30:50;7.73;;;6.93;;
7929;SDS011;4010;42.698;23.124;2023-06-10T04:33:17;8.57;;;7.67;;
7929;SDS011;4010;42.698;23.124;2023-06-10T04:35:43;8.30;;;7.60;;
7929;SDS011;4010;42.698;23.124;2023-06-10T04:38:12;9.10;;;7.27;;
7929;SDS011;4010;42.698;23.124;2023-06-10T04:40:39;7.77;;;7.17;;
7929;SDS011;4010;42.698;23.124;2023-06-10T04:43:06;7.57;;;6.87;;
7929;SDS011;4010;42.698;23.124;2023-06-10T04:45:34;8.17;;;7.47;;
7929;SDS011;4010;42.698;23.124;2023-06-10T04:48:00;7.97;;;7.27;;
7929;SDS011;4010;42.698;23.124;2023-06-10T04:50:28;7.80;;;7.10;;
7929;SDS011;4010;42.698;23.124;2023-06-10T04:52:54;7.77;;;6.90;;
7929;SDS011;4010;42.698;23.124;2023-06-10T04:55:22;7.33;;;6.63;;
7929;SDS011;4010;42.698;23.124;2023-06-10T04:57:49;8.00;;;7.30;;
7929;SDS011;4010;42.698;23.124;2023-06-10T05:00:16;7.50;;;6.83;;
7929;SDS011;4010;42.698;23.124;2023-06-10T05:02:44;8.43;;;7.63;;
7929;SDS011;4010;42.698;23.124;2023-06-10T05:05:14;7.70;;;7.00;;
7929;SDS011;4010;42.698;23.124;2023-06-10T05:07:41;7.70;;;7.10;;
7929;SDS011;4010;42.698;23.124;2023-06-10T05:10:08;7.67;;;6.67;;
7929;SDS011;4010;42.698;23.124;2023-06-10T05:12:37;7.17;;;6.50;;
7929;SDS011;4010;42.698;23.124;2023-06-10T05:15:05;7.70;;;6.97;;
7929;SDS011;4010;42.698;23.124;2023-06-10T05:17:32;7.47;;;6.77;;
7929;SDS011;4010;42.698;23.124;2023-06-10T05:20:01;7.37;;;6.67;;
7929;SDS011;4010;42.698;23.124;2023-06-10T05:22:28;7.60;;;7.00;;
7929;SDS011;4010;42.698;23.124;2023-06-10T05:24:54;7.50;;;6.27;;
7929;SDS011;4010;42.698;23.124;2023-06-10T05:27:21;7.27;;;6.67;;
7929;SDS011;4010;42.698;23.124;2023-06-10T05:29:49;6.60;;;6.00;;
7929;SDS011;4010;42.698;23.124;2023-06-10T05:32:16;7.20;;;6.27;;
7929;SDS011;4010;42.698;23.124;2023-06-10T05:34:43;6.13;;;5.60;;
7929;SDS011;4010;42.698;23.124;2023-06-10T05:37:12;6.83;;;6.23;;
7929;SDS011;4010;42.698;23.124;2023-06-10T05:39:39;6.77;;;6.17;;
7929;SDS011;4010;42.698;23.124;2023-06-10T05:42:06;6.50;;;6.00;;
7929;SDS011;4010;42.698;23.124;2023-06-10T05:44:34;5.80;;;5.30;;
7929;SDS011;4010;42.698;23.124;2023-06-10T05:47:01;7.60;;;5.60;;
7929;SDS011;4010;42.698;23.124;2023-06-10T05:49:28;5.93;;;5.43;;
7929;SDS011;4010;42.698;23.124;2023-06-10T05:51:54;5.73;;;5.17;;
7929;SDS011;4010;42.698;23.124;2023-06-10T05:54:24;6.80;;;4.87;;
7929;SDS011;4010;42.698;23.124;2023-06-10T05:56:51;5.53;;;5.03;;
7929;SDS011;4010;42.698;23.124;2023-06-10T05:59:18;5.60;;;5.17;;
7929;SDS011;4010;42.698;23.124;2023-06-10T06:01:45;6.17;;;5.20;;
7929;SDS011;4010;42.698;23.124;2023-06-10T06:04:11;6.23;;;5.63;;
7929;SDS011;4010;42.698;23.124;2023-06-10T06:06:38;6.20;;;5.50;;
7929;SDS011;4010;42.698;23.124;2023-06-10T06:09:06;4.87;;;4.47;;
7929;SDS011;4010;42.698;23.124;2023-06-10T06:11:34;4.70;;;4.40;;
7929;SDS011;4010;42.698;23.124;2023-06-10T06:14:01;5.10;;;4.60;;
7929;SDS011;4010;42.698;23.124;2023-06-10T06:16:27;5.57;;;5.13;;
7929;SDS011;4010;42.698;23.124;2023-06-10T06:18:54;6.13;;;5.60;;
7929;SDS011;4010;42.698;23.124;2023-06-10T06:21:21;6.20;;;5.60;;
7929;SDS011;4010;42.698;23.124;2023-06-10T06:23:47;5.07;;;4.67;;
7929;SDS011;4010;42.698;23.124;2023-06-10T06:26:15;7.10;;;4.80;;
7929;SDS011;4010;42.698;23.124;2023-06-10T06:28:43;5.67;;;5.17;;
7929;SDS011;4010;42.698;23.124;2023-06-10T06:31:10;5.90;;;5.40;;
7929;SDS011;4010;42.698;23.124;2023-06-10T06:33:37;5.40;;;4.97;;
7929;SDS011;4010;42.698;23.124;2023-06-10T06:36:03;6.13;;;5.60;;
7929;SDS011;4010;42.698;23.124;2023-06-10T06:38:30;7.53;;;5.20;;
7929;SDS011;4010;42.698;23.124;2023-06-10T06:40:57;6.30;;;5.80;;
7929;SDS011;4010;42.698;23.124;2023-06-10T06:43:27;6.10;;;5.63;;
7929;SDS011;4010;42.698;23.124;2023-06-10T06:45:56;6.47;;;5.87;;
7929;SDS011;4010;42.698;23.124;2023-06-10T06:48:22;5.67;;;5.17;;
7929;SDS011;4010;42.698;23.124;2023-06-10T06:50:49;6.73;;;5.67;;
7929;SDS011;4010;42.698;23.124;2023-06-10T06:53:16;7.07;;;6.32;;
7929;SDS011;4010;42.698;23.124;2023-06-10T06:55:42;7.00;;;5.97;;
7929;SDS011;4010;42.698;23.124;2023-06-10T06:58:09;6.40;;;5.50;;
7929;SDS011;4010;42.698;23.124;2023-06-10T07:00:36;5.70;;;5.20;;
7929;SDS011;4010;42.698;23.124;2023-06-10T07:03:04;6.93;;;5.50;;
7929;SDS011;4010;42.698;23.124;2023-06-10T07:05:30;6.20;;;5.00;;
7929;SDS011;4010;42.698;23.124;2023-06-10T07:07:57;5.40;;;4.90;;
7929;SDS011;4010;42.698;23.124;2023-06-10T07:10:24;5.43;;;5.03;;
7929;SDS011;4010;42.698;23.124;2023-06-10T07:12:52;5.43;;;4.93;;
7929;SDS011;4010;42.698;23.124;2023-06-10T07:15:18;7.80;;;5.07;;
7929;SDS011;4010;42.698;23.124;2023-06-10T07:17:45;7.20;;;5.17;;
7929;SDS011;4010;42.698;23.124;2023-06-10T07:20:14;5.40;;;4.90;;
7929;SDS011;4010;42.698;23.124;2023-06-10T07:22:40;5.37;;;4.60;;
7929;SDS011;4010;42.698;23.124;2023-06-10T07:25:07;7.00;;;4.37;;
7929;SDS011;4010;42.698;23.124;2023-06-10T07:27:34;7.37;;;4.57;;
7929;SDS011;4010;42.698;23.124;2023-06-10T07:30:02;4.40;;;4.10;;
7929;SDS011;4010;42.698;23.124;2023-06-10T07:32:29;6.67;;;4.00;;
7929;SDS011;4010;42.698;23.124;2023-06-10T07:34:56;5.20;;;4.70;;
7929;SDS011;4010;42.698;23.124;2023-06-10T07:37:24;4.77;;;4.27;;
7929;SDS011;4010;42.698;23.124;2023-06-10T07:39:51;4.80;;;4.13;;
7929;SDS011;4010;42.698;23.124;2023-06-10T07:42:17;5.10;;;4.70;;
7929;SDS011;4010;42.698;23.124;2023-06-10T07:44:44;5.33;;;4.83;;
7929;SDS011;4010;42.698;23.124;2023-06-10T07:47:11;7.37;;;4.87;;
7929;SDS011;4010;42.698;23.124;2023-06-10T07:49:37;4.57;;;4.17;;
7929;SDS011;4010;42.698;23.124;2023-06-10T07:52:05;4.70;;;4.40;;
7929;SDS011;4010;42.698;23.124;2023-06-10T07:54:33;4.60;;;4.20;;
7929;SDS011;4010;42.698;23.124;2023-06-10T07:57:00;4.43;;;4.03;;
7929;SDS011;4010;42.698;23.124;2023-06-10T07:59:27;3.70;;;3.40;;
7929;SDS011;4010;42.698;23.124;2023-06-10T08:01:54;3.90;;;3.50;;
7929;SDS011;4010;42.698;23.124;2023-06-10T08:04:20;4.53;;;3.53;;
7929;SDS011;4010;42.698;23.124;2023-06-10T08:06:47;4.13;;;3.60;;
7929;SDS011;4010;42.698;23.124;2023-06-10T08:09:14;5.03;;;3.30;;
7929;SDS011;4010;42.698;23.124;2023-06-10T08:11:42;5.57;;;3.83;;
7929;SDS011;4010;42.698;23.124;2023-06-10T08:14:09;4.77;;;3.70;;
7929;SDS011;4010;42.698;23.124;2023-06-10T08:16:35;5.67;;;4.00;;
7929;SDS011;4010;42.698;23.124;2023-06-10T08:19:02;4.00;;;3.70;;
7929;SDS011;4010;42.698;23.124;2023-06-10T08:21:28;4.03;;;3.77;;
7929;SDS011;4010;42.698;23.124;2023-06-10T08:23:55;4.80;;;3.70;;
7929;SDS011;4010;42.698;23.124;2023-06-10T08:26:22;4.70;;;4.13;;
7929;SDS011;4010;42.698;23.124;2023-06-10T08:28:50;4.27;;;3.87;;
7929;SDS011;4010;42.698;23.124;2023-06-10T08:31:17;3.87;;;3.57;;
7929;SDS011;4010;42.698;23.124;2023-06-10T08:33:43;4.40;;;4.07;;
7929;SDS011;4010;42.698;23.124;2023-06-10T08:39:31;5.07;;;3.83;;
7929;SDS011;4010;42.698;23.124;2023-06-10T08:42:00;3.53;;;3.23;;
7929;SDS011;4010;42.698;23.124;2023-06-10T08:44:37;3.77;;;3.07;;
7929;SDS011;4010;42.698;23.124;2023-06-10T08:47:06;4.23;;;3.80;;
7929;SDS011;4010;42.698;23.124;2023-06-10T08:49:37;3.23;;;2.90;;
7929;SDS011;4010;42.698;23.124;2023-06-10T08:52:07;2.87;;;2.67;;
7929;SDS011;4010;42.698;23.124;2023-06-10T08:54:37;4.53;;;3.30;;
7929;SDS011;4010;42.698;23.124;2023-06-10T08:57:06;4.63;;;3.83;;
7929;SDS011;4010;42.698;23.124;2023-06-10T08:59:33;7.30;;;3.40;;
7929;SDS011;4010;42.698;23.124;2023-06-10T09:02:01;4.17;;;3.30;;
7929;SDS011;4010;42.698;23.124;2023-06-10T09:04:30;3.13;;;2.83;;
7929;SDS011;4010;42.698;23.124;2023-06-10T09:06:57;5.17;;;3.23;;
7929;SDS011;4010;42.698;23.124;2023-06-10T09:09:25;4.40;;;3.67;;
7929;SDS011;4010;42.698;23.124;2023-06-10T09:11:55;3.70;;;3.40;;
7929;SDS011;4010;42.698;23.124;2023-06-10T09:14:22;3.70;;;3.30;;
7929;SDS011;4010;42.698;23.124;2023-06-10T09:16:49;3.90;;;3.07;;
7929;SDS011;4010;42.698;23.124;2023-06-10T09:19:17;3.67;;;3.37;;
7929;SDS011;4010;42.698;23.124;2023-06-10T09:21:46;3.57;;;3.27;;
7929;SDS011;4010;42.698;23.124;2023-06-10T09:24:12;3.40;;;3.10;;
7929;SDS011;4010;42.698;23.124;2023-06-10T09:26:40;3.20;;;2.90;;
7929;SDS011;4010;42.698;23.124;2023-06-10T09:29:08;3.43;;;3.13;;
7929;SDS011;4010;42.698;23.124;2023-06-10T09:31:37;3.50;;;3.20;;
7929;SDS011;4010;42.698;23.124;2023-06-10T09:34:06;3.37;;;3.03;;
7929;SDS011;4010;42.698;23.124;2023-06-10T09:36:36;2.77;;;2.57;;
7929;SDS011;4010;42.698;23.124;2023-06-10T09:39:05;5.73;;;3.03;;
7929;SDS011;4010;42.698;23.124;2023-06-10T09:41:39;3.53;;;3.23;;
7929;SDS011;4010;42.698;23.124;2023-06-10T09:44:11;4.30;;;2.90;;
7929;SDS011;4010;42.698;23.124;2023-06-10T09:46:38;4.43;;;3.10;;
7929;SDS011;4010;42.698;23.124;2023-06-10T09:49:05;3.87;;;3.37;;
7929;SDS011;4010;42.698;23.124;2023-06-10T09:51:31;3.50;;;3.17;;
7929;SDS011;4010;42.698;23.124;2023-06-10T09:53:59;3.53;;;3.23;;
7929;SDS011;4010;42.698;23.124;2023-06-10T09:56:37;4.83;;;3.10;;
7929;SDS011;4010;42.698;23.124;2023-06-10T09:59:07;3.93;;;3.53;;
7929;SDS011;4010;42.698;23.124;2023-06-10T10:01:34;4.00;;;3.70;;
7929;SDS011;4010;42.698;23.124;2023-06-10T10:04:01;4.07;;;3.30;;
7929;SDS011;4010;42.698;23.124;2023-06-10T10:06:29;5.40;;;3.27;;
7929;SDS011;4010;42.698;23.124;2023-06-10T10:08:56;4.07;;;3.67;;
7929;SDS011;4010;42.698;23.124;2023-06-10T10:11:24;4.10;;;3.63;;
7929;SDS011;4010;42.698;23.124;2023-06-10T10:13:52;4.20;;;3.80;;
7929;SDS011;4010;42.698;23.124;2023-06-10T10:16:20;3.70;;;3.40;;
7929;SDS011;4010;42.698;23.124;2023-06-10T10:18:51;3.70;;;3.20;;
7929;SDS011;4010;42.698;23.124;2023-06-10T10:21:22;3.70;;;3.27;;
7929;SDS011;4010;42.698;23.124;2023-06-10T10:23:52;4.20;;;3.90;;
7929;SDS011;4010;42.698;23.124;2023-06-10T10:26:25;4.07;;;3.67;;
7929;SDS011;4010;42.698;23.124;2023-06-10T10:29:07;3.90;;;3.60;;
7929;SDS011;4010;42.698;23.124;2023-06-10T10:31:39;4.10;;;3.80;;
7929;SDS011;4010;42.698;23.124;2023-06-10T10:34:12;4.13;;;3.73;;
7929;SDS011;4010;42.698;23.124;2023-06-10T10:36:41;4.47;;;4.07;;
7929;SDS011;4010;42.698;23.124;2023-06-10T10:39:08;3.53;;;3.33;;
7929;SDS011;4010;42.698;23.124;2023-06-10T10:41:36;3.80;;;3.50;;
7929;SDS011;4010;42.698;23.124;2023-06-10T10:44:04;5.30;;;3.93;;
7929;SDS011;4010;42.698;23.124;2023-06-10T10:46:41;4.50;;;4.10;;
7929;SDS011;4010;42.698;23.124;2023-06-10T10:49:09;4.40;;;4.00;;
7929;SDS011;4010;42.698;23.124;2023-06-10T10:51:38;3.93;;;3.63;;
7929;SDS011;4010;42.698;23.124;2023-06-10T10:54:21;3.87;;;3.57;;
7929;SDS011;4010;42.698;23.124;2023-06-10T10:57:11;4.33;;;3.93;;
7929;SDS011;4010;42.698;23.124;2023-06-10T10:59:52;4.00;;;3.70;;
7929;SDS011;4010;42.698;23.124;2023-06-10T11:02:34;3.37;;;3.07;;
7929;SDS011;4010;42.698;23.124;2023-06-10T11:05:04;3.70;;;3.40;;
7929;SDS011;4010;42.698;23.124;2023-06-10T11:07:32;4.77;;;3.57;;
7929;SDS011;4010;42.698;23.124;2023-06-10T11:09:59;3.80;;;3.50;;
7929;SDS011;4010;42.698;23.124;2023-06-10T11:15:21;4.07;;;3.50;;
7929;SDS011;4010;42.698;23.124;2023-06-10T11:20:42;4.23;;;3.83;;
7929;SDS011;4010;42.698;23.124;2023-06-10T11:23:29;3.47;;;3.17;;
7929;SDS011;4010;42.698;23.124;2023-06-10T11:26:16;4.30;;;3.60;;
7929;SDS011;4010;42.698;23.124;2023-06-10T11:31:40;4.27;;;3.87;;
7929;SDS011;4010;42.698;23.124;2023-06-10T11:34:08;3.77;;;3.03;;
7929;SDS011;4010;42.698;23.124;2023-06-10T11:36:36;4.30;;;3.90;;
7929;SDS011;4010;42.698;23.124;2023-06-10T11:39:05;4.30;;;3.90;;
7929;SDS011;4010;42.698;23.124;2023-06-10T11:41:33;3.53;;;3.23;;
7929;SDS011;4010;42.698;23.124;2023-06-10T11:44:01;4.43;;;4.03;;
7929;SDS011;4010;42.698;23.124;2023-06-10T11:46:30;3.83;;;3.40;;
7929;SDS011;4010;42.698;23.124;2023-06-10T11:48:57;4.37;;;4.03;;
7929;SDS011;4010;42.698;23.124;2023-06-10T11:51:25;4.33;;;3.30;;
7929;SDS011;4010;42.698;23.124;2023-06-10T11:53:53;4.00;;;3.57;;
7929;SDS011;4010;42.698;23.124;2023-06-10T11:56:20;4.30;;;3.90;;
7929;SDS011;4010;42.698;23.124;2023-06-10T11:58:51;4.60;;;4.20;;
7929;SDS011;4010;42.698;23.124;2023-06-10T12:01:20;4.10;;;3.70;;
7929;SDS011;4010;42.698;23.124;2023-06-10T12:03:50;3.93;;;3.53;;
7929;SDS011;4010;42.698;23.124;2023-06-10T12:06:23;3.83;;;3.43;;
7929;SDS011;4010;42.698;23.124;2023-06-10T12:08:50;3.60;;;3.27;;
7929;SDS011;4010;42.698;23.124;2023-06-10T12:11:16;5.77;;;3.67;;
7929;SDS011;4010;42.698;23.124;2023-06-10T12:13:45;4.77;;;3.67;;
7929;SDS011;4010;42.698;23.124;2023-06-10T12:16:13;3.90;;;3.50;;
7929;SDS011;4010;42.698;23.124;2023-06-10T12:18:41;3.60;;;3.33;;
7929;SDS011;4010;42.698;23.124;2023-06-10T12:21:17;3.83;;;3.37;;
7929;SDS011;4010;42.698;23.124;2023-06-10T12:24:01;4.30;;;3.90;;
7929;SDS011;4010;42.698;23.124;2023-06-10T12:26:39;3.90;;;3.60;;
7929;SDS011;4010;42.698;23.124;2023-06-10T12:31:59;3.80;;;3.50;;
7929;SDS011;4010;42.698;23.124;2023-06-10T12:34:28;3.77;;;3.47;;
7929;SDS011;4010;42.698;23.124;2023-06-10T12:37:00;4.73;;;3.70;;
7929;SDS011;4010;42.698;23.124;2023-06-10T12:39:28;3.77;;;3.47;;
7929;SDS011;4010;42.698;23.124;2023-06-10T12:41:54;4.50;;;4.10;;
7929;SDS011;4010;42.698;23.124;2023-06-10T12:44:31;4.23;;;3.60;;
7929;SDS011;4010;42.698;23.124;2023-06-10T12:46:59;4.40;;;4.00;;
7929;SDS011;4010;42.698;23.124;2023-06-10T12:49:26;5.83;;;3.70;;
7929;SDS011;4010;42.698;23.124;2023-06-10T12:51:52;4.53;;;3.60;;
7929;SDS011;4010;42.698;23.124;2023-06-10T12:54:21;5.43;;;3.90;;
7929;SDS011;4010;42.698;23.124;2023-06-10T13:03:31;7.40;;;4.70;;
7929;SDS011;4010;42.698;23.124;2023-06-10T13:05:58;7.37;;;5.00;;
7929;SDS011;4010;42.698;23.124;2023-06-10T13:08:25;5.70;;;4.97;;
7929;SDS011;4010;42.698;23.124;2023-06-10T13:10:53;6.63;;;5.77;;
7929;SDS011;4010;42.698;23.124;2023-06-10T13:13:20;5.70;;;5.20;;
7929;SDS011;4010;42.698;23.124;2023-06-10T13:15:46;6.77;;;5.20;;
7929;SDS011;4010;42.698;23.124;2023-06-10T13:18:15;6.77;;;5.37;;
7929;SDS011;4010;42.698;23.124;2023-06-10T13:20:43;5.73;;;5.27;;
7929;SDS011;4010;42.698;23.124;2023-06-10T13:23:09;4.53;;;4.13;;
7929;SDS011;4010;42.698;23.124;2023-06-10T13:25:36;6.83;;;4.10;;
7929;SDS011;4010;42.698;23.124;2023-06-10T13:28:04;4.37;;;4.00;;
7929;SDS011;4010;42.698;23.124;2023-06-10T13:30:31;7.13;;;4.50;;
7929;SDS011;4010;42.698;23.124;2023-06-10T13:32:58;5.63;;;4.83;;
7929;SDS011;4010;42.698;23.124;2023-06-10T13:35:25;5.30;;;4.80;;
7929;SDS011;4010;42.698;23.124;2023-06-10T13:37:52;6.37;;;5.70;;
7929;SDS011;4010;42.698;23.124;2023-06-10T13:40:19;6.50;;;5.33;;
7929;SDS011;4010;42.698;23.124;2023-06-10T13:42:45;12.57;;;5.30;;
7929;SDS011;4010;42.698;23.124;2023-06-10T13:45:17;5.63;;;5.03;;
7929;SDS011;4010;42.698;23.124;2023-06-10T13:47:43;5.90;;;5.30;;
7929;SDS011;4010;42.698;23.124;2023-06-10T13:50:10;7.17;;;5.60;;
7929;SDS011;4010;42.698;23.124;2023-06-10T13:52:38;7.50;;;5.60;;
7929;SDS011;4010;42.698;23.124;2023-06-10T13:55:05;7.53;;;5.00;;
7929;SDS011;4010;42.698;23.124;2023-06-10T13:57:32;5.97;;;5.37;;
7929;SDS011;4010;42.698;23.124;2023-06-10T13:59:59;6.90;;;5.23;;
7929;SDS011;4010;42.698;23.124;2023-06-10T14:02:27;8.57;;;5.77;;
7929;SDS011;4010;42.698;23.124;2023-06-10T14:04:53;4.90;;;4.50;;
7929;SDS011;4010;42.698;23.124;2023-06-10T14:07:20;5.53;;;4.43;;
7929;SDS011;4010;42.698;23.124;2023-06-10T14:09:47;6.80;;;5.00;;
7929;SDS011;4010;42.698;23.124;2023-06-10T14:12:13;5.63;;;4.40;;
7929;SDS011;4010;42.698;23.124;2023-06-10T14:14:40;5.47;;;4.53;;
7929;SDS011;4010;42.698;23.124;2023-06-10T14:17:07;5.53;;;4.90;;
7929;SDS011;4010;42.698;23.124;2023-06-10T14:19:35;4.93;;;4.53;;
7929;SDS011;4010;42.698;23.124;2023-06-10T14:22:01;5.00;;;4.57;;
7929;SDS011;4010;42.698;23.124;2023-06-10T14:24:28;4.63;;;4.20;;
7929;SDS011;4010;42.698;23.124;2023-06-10T14:26:55;4.83;;;4.30;;
7929;SDS011;4010;42.698;23.124;2023-06-10T14:29:23;4.43;;;4.03;;
7929;SDS011;4010;42.698;23.124;2023-06-10T14:31:52;5.13;;;4.50;;
7929;SDS011;4010;42.698;23.124;2023-06-10T14:34:18;5.00;;;4.50;;
7929;SDS011;4010;42.698;23.124;2023-06-10T14:36:47;5.97;;;4.10;;
7929;SDS011;4010;42.698;23.124;2023-06-10T14:39:13;4.03;;;3.67;;
7929;SDS011;4010;42.698;23.124;2023-06-10T14:41:40;7.40;;;4.30;;
7929;SDS011;4010;42.698;23.124;2023-06-10T14:44:06;4.40;;;4.00;;
7929;SDS011;4010;42.698;23.124;2023-06-10T14:53:00;4.40;;;4.00;;
7929;SDS011;4010;42.698;23.124;2023-06-10T14:55:27;5.30;;;3.63;;
7929;SDS011;4010;42.698;23.124;2023-06-10T14:57:54;4.37;;;3.97;;
7929;SDS011;4010;42.698;23.124;2023-06-10T15:00:22;4.63;;;4.07;;
7929;SDS011;4010;42.698;23.124;2023-06-10T15:02:50;4.33;;;3.93;;
7929;SDS011;4010;42.698;23.124;2023-06-10T15:05:18;4.37;;;4.07;;
7929;SDS011;4010;42.698;23.124;2023-06-10T15:07:45;6.67;;;4.03;;
7929;SDS011;4010;42.698;23.124;2023-06-10T15:10:13;4.20;;;3.90;;
7929;SDS011;4010;42.698;23.124;2023-06-10T15:12:41;6.40;;;4.73;;
7929;SDS011;4010;42.698;23.124;2023-06-10T15:15:08;4.03;;;3.73;;
7929;SDS011;4010;42.698;23.124;2023-06-10T15:17:35;3.97;;;3.67;;
7929;SDS011;4010;42.698;23.124;2023-06-10T15:20:02;4.30;;;4.00;;
7929;SDS011;4010;42.698;23.124;2023-06-10T15:22:29;4.23;;;3.87;;
7929;SDS011;4010;42.698;23.124;2023-06-10T15:24:56;6.00;;;3.93;;
7929;SDS011;4010;42.698;23.124;2023-06-10T15:27:24;4.37;;;4.07;;
7929;SDS011;4010;42.698;23.124;2023-06-10T15:29:51;4.60;;;4.10;;
7929;SDS011;4010;42.698;23.124;2023-06-10T15:32:17;4.93;;;3.80;;
7929;SDS011;4010;42.698;23.124;2023-06-10T15:34:44;8.10;;;4.10;;